sensor_id;sensor_type;location;lat;lon;timestamp;temperature;humidity
41533;DHT22;27262;-35.248;149.138;2023-07-30T00:01:48;18.20;62.70
41533;DHT22;27262;-35.248;149.138;2023-07-30T00:04:19;18.20;62.80
41533;DHT22;27262;-35.248;149.138;2023-07-30T00:06:50;18.20;62.70
41533;DHT22;27262;-35.248;149.138;2023-07-30T00:09:20;18.20;62.80
41533;DHT22;27262;-35.248;149.138;2023-07-30T00:11:51;18.20;62.80
41533;DHT22;27262;-35.248;149.138;2023-07-30T00:14:21;18.20;62.70
41533;DHT22;27262;-35.248;149.138;2023-07-30T00:16:52;18.20;62.70
41533;DHT22;27262;-35.248;149.138;2023-07-30T00:19:22;18.20;62.70
41533;DHT22;27262;-35.248;149.138;2023-07-30T00:21:53;18.20;62.60
41533;DHT22;27262;-35.248;149.138;2023-07-30T00:24:23;18.20;62.60
41533;DHT22;27262;-35.248;149.138;2023-07-30T00:26:53;18.20;62.60
41533;DHT22;27262;-35.248;149.138;2023-07-30T00:29:24;18.20;62.60
41533;DHT22;27262;-35.248;149.138;2023-07-30T00:31:54;18.20;62.60
41533;DHT22;27262;-35.248;149.138;2023-07-30T00:34:25;18.20;62.60
41533;DHT22;27262;-35.248;149.138;2023-07-30T00:36:55;18.20;62.50
41533;DHT22;27262;-35.248;149.138;2023-07-30T00:39:26;18.20;62.60
41533;DHT22;27262;-35.248;149.138;2023-07-30T00:41:56;18.20;62.60
41533;DHT22;27262;-35.248;149.138;2023-07-30T00:44:26;18.20;62.60
41533;DHT22;27262;-35.248;149.138;2023-07-30T00:46:57;18.20;62.60
41533;DHT22;27262;-35.248;149.138;2023-07-30T00:49:27;18.20;62.60
41533;DHT22;27262;-35.248;149.138;2023-07-30T00:51:58;18.20;62.70
41533;DHT22;27262;-35.248;149.138;2023-07-30T00:54:28;18.20;62.70
41533;DHT22;27262;-35.248;149.138;2023-07-30T00:56:59;18.20;63.50
41533;DHT22;27262;-35.248;149.138;2023-07-30T00:59:30;18.10;62.70
41533;DHT22;27262;-35.248;149.138;2023-07-30T01:02:01;18.20;62.90
41533;DHT22;27262;-35.248;149.138;2023-07-30T01:04:33;18.20;62.90
41533;DHT22;27262;-35.248;149.138;2023-07-30T01:07:04;18.20;62.80
41533;DHT22;27262;-35.248;149.138;2023-07-30T01:09:36;18.20;63.00
41533;DHT22;27262;-35.248;149.138;2023-07-30T01:12:07;18.20;63.00
41533;DHT22;27262;-35.248;149.138;2023-07-30T01:14:38;18.20;63.10
41533;DHT22;27262;-35.248;149.138;2023-07-30T01:17:09;18.20;63.10
41533;DHT22;27262;-35.248;149.138;2023-07-30T01:19:41;18.20;63.10
41533;DHT22;27262;-35.248;149.138;2023-07-30T01:22:11;18.20;63.00
41533;DHT22;27262;-35.248;149.138;2023-07-30T01:24:41;18.20;62.90
41533;DHT22;27262;-35.248;149.138;2023-07-30T01:27:24;18.20;62.90
41533;DHT22;27262;-35.248;149.138;2023-07-30T01:30:08;18.20;62.80
41533;DHT22;27262;-35.248;149.138;2023-07-30T01:32:42;18.20;62.80
41533;DHT22;27262;-35.248;149.138;2023-07-30T01:35:14;18.20;62.80
41533;DHT22;27262;-35.248;149.138;2023-07-30T01:37:45;18.20;62.70
41533;DHT22;27262;-35.248;149.138;2023-07-30T01:40:16;18.30;62.70
41533;DHT22;27262;-35.248;149.138;2023-07-30T01:42:48;18.30;62.70
41533;DHT22;27262;-35.248;149.138;2023-07-30T01:45:19;18.30;62.70
41533;DHT22;27262;-35.248;149.138;2023-07-30T01:47:49;18.30;62.70
41533;DHT22;27262;-35.248;149.138;2023-07-30T01:50:19;18.30;62.80
41533;DHT22;27262;-35.248;149.138;2023-07-30T01:52:50;18.30;62.90
41533;DHT22;27262;-35.248;149.138;2023-07-30T01:55:20;18.30;63.00
41533;DHT22;27262;-35.248;149.138;2023-07-30T01:57:50;18.30;63.00
41533;DHT22;27262;-35.248;149.138;2023-07-30T02:00:21;18.30;63.10
41533;DHT22;27262;-35.248;149.138;2023-07-30T02:02:51;18.30;63.00
41533;DHT22;27262;-35.248;149.138;2023-07-30T02:05:22;18.40;63.00
41533;DHT22;27262;-35.248;149.138;2023-07-30T02:07:52;18.30;63.00
41533;DHT22;27262;-35.248;149.138;2023-07-30T02:10:24;18.30;63.00
41533;DHT22;27262;-35.248;149.138;2023-07-30T02:12:54;18.40;63.00
41533;DHT22;27262;-35.248;149.138;2023-07-30T02:15:25;18.30;62.80
41533;DHT22;27262;-35.248;149.138;2023-07-30T02:17:55;18.30;61.70
41533;DHT22;27262;-35.248;149.138;2023-07-30T02:20:26;18.30;61.00
41533;DHT22;27262;-35.248;149.138;2023-07-30T02:22:57;18.30;60.70
41533;DHT22;27262;-35.248;149.138;2023-07-30T02:25:27;18.30;59.30
41533;DHT22;27262;-35.248;149.138;2023-07-30T02:27:59;18.30;58.50
41533;DHT22;27262;-35.248;149.138;2023-07-30T02:30:30;18.30;57.80
41533;DHT22;27262;-35.248;149.138;2023-07-30T02:33:02;18.30;57.60
41533;DHT22;27262;-35.248;149.138;2023-07-30T02:35:33;18.30;57.40
41533;DHT22;27262;-35.248;149.138;2023-07-30T02:38:04;18.30;57.20
41533;DHT22;27262;-35.248;149.138;2023-07-30T02:40:35;18.30;57.30
41533;DHT22;27262;-35.248;149.138;2023-07-30T02:43:05;18.30;57.00
41533;DHT22;27262;-35.248;149.138;2023-07-30T02:45:37;18.30;56.70
41533;DHT22;27262;-35.248;149.138;2023-07-30T02:48:08;18.30;56.60
41533;DHT22;27262;-35.248;149.138;2023-07-30T02:50:38;18.20;57.00
41533;DHT22;27262;-35.248;149.138;2023-07-30T02:53:08;18.30;56.00
41533;DHT22;27262;-35.248;149.138;2023-07-30T02:55:39;18.20;56.40
41533;DHT22;27262;-35.248;149.138;2023-07-30T02:58:09;18.20;57.30
41533;DHT22;27262;-35.248;149.138;2023-07-30T03:00:39;18.20;58.40
41533;DHT22;27262;-35.248;149.138;2023-07-30T03:03:10;18.20;58.70
41533;DHT22;27262;-35.248;149.138;2023-07-30T03:05:43;18.20;58.50
41533;DHT22;27262;-35.248;149.138;2023-07-30T03:08:13;18.20;58.30
41533;DHT22;27262;-35.248;149.138;2023-07-30T03:10:46;18.20;57.90
41533;DHT22;27262;-35.248;149.138;2023-07-30T03:13:17;18.20;58.20
41533;DHT22;27262;-35.248;149.138;2023-07-30T03:15:47;18.20;58.10
41533;DHT22;27262;-35.248;149.138;2023-07-30T03:18:18;18.10;58.20
41533;DHT22;27262;-35.248;149.138;2023-07-30T03:20:49;18.10;57.50
41533;DHT22;27262;-35.248;149.138;2023-07-30T03:23:19;18.10;57.20
41533;DHT22;27262;-35.248;149.138;2023-07-30T03:25:50;18.10;56.00
41533;DHT22;27262;-35.248;149.138;2023-07-30T03:28:20;18.10;55.70
41533;DHT22;27262;-35.248;149.138;2023-07-30T03:30:50;18.10;54.80
41533;DHT22;27262;-35.248;149.138;2023-07-30T03:33:20;18.10;54.40
41533;DHT22;27262;-35.248;149.138;2023-07-30T03:35:51;18.10;54.90
41533;DHT22;27262;-35.248;149.138;2023-07-30T03:38:27;18.10;53.70
41533;DHT22;27262;-35.248;149.138;2023-07-30T03:41:00;18.10;53.80
41533;DHT22;27262;-35.248;149.138;2023-07-30T03:43:30;18.10;53.50
41533;DHT22;27262;-35.248;149.138;2023-07-30T03:46:01;18.00;53.60
41533;DHT22;27262;-35.248;149.138;2023-07-30T03:48:31;18.00;55.50
41533;DHT22;27262;-35.248;149.138;2023-07-30T03:51:02;18.10;56.50
41533;DHT22;27262;-35.248;149.138;2023-07-30T03:53:32;18.10;57.60
41533;DHT22;27262;-35.248;149.138;2023-07-30T03:56:02;18.00;56.70
41533;DHT22;27262;-35.248;149.138;2023-07-30T03:58:33;18.10;56.10
41533;DHT22;27262;-35.248;149.138;2023-07-30T04:01:05;18.10;56.30
41533;DHT22;27262;-35.248;149.138;2023-07-30T04:03:38;18.10;56.60
41533;DHT22;27262;-35.248;149.138;2023-07-30T04:06:08;18.10;56.80
41533;DHT22;27262;-35.248;149.138;2023-07-30T04:08:39;18.10;57.00
41533;DHT22;27262;-35.248;149.138;2023-07-30T04:11:09;18.20;57.30
41533;DHT22;27262;-35.248;149.138;2023-07-30T04:13:41;18.10;57.50
41533;DHT22;27262;-35.248;149.138;2023-07-30T04:16:11;18.20;57.70
41533;DHT22;27262;-35.248;149.138;2023-07-30T04:18:42;18.20;57.80
41533;DHT22;27262;-35.248;149.138;2023-07-30T04:21:12;18.20;57.90
41533;DHT22;27262;-35.248;149.138;2023-07-30T04:23:43;18.20;58.10
41533;DHT22;27262;-35.248;149.138;2023-07-30T04:26:13;18.30;58.20
41533;DHT22;27262;-35.248;149.138;2023-07-30T04:28:44;18.30;58.20
41533;DHT22;27262;-35.248;149.138;2023-07-30T04:31:15;18.30;58.20
41533;DHT22;27262;-35.248;149.138;2023-07-30T04:33:46;18.40;58.30
41533;DHT22;27262;-35.248;149.138;2023-07-30T04:36:16;18.30;58.30
41533;DHT22;27262;-35.248;149.138;2023-07-30T04:38:46;18.40;58.40
41533;DHT22;27262;-35.248;149.138;2023-07-30T04:41:17;18.40;58.20
41533;DHT22;27262;-35.248;149.138;2023-07-30T04:43:48;18.50;58.30
41533;DHT22;27262;-35.248;149.138;2023-07-30T04:46:19;18.50;58.30
41533;DHT22;27262;-35.248;149.138;2023-07-30T04:48:49;18.50;58.30
41533;DHT22;27262;-35.248;149.138;2023-07-30T04:51:19;18.50;58.30
41533;DHT22;27262;-35.248;149.138;2023-07-30T04:53:50;18.60;58.40
41533;DHT22;27262;-35.248;149.138;2023-07-30T04:56:20;18.60;58.30
41533;DHT22;27262;-35.248;149.138;2023-07-30T04:58:50;18.60;58.30
41533;DHT22;27262;-35.248;149.138;2023-07-30T05:01:20;18.70;58.30
41533;DHT22;27262;-35.248;149.138;2023-07-30T05:03:51;18.70;58.30
41533;DHT22;27262;-35.248;149.138;2023-07-30T05:06:21;18.70;58.30
41533;DHT22;27262;-35.248;149.138;2023-07-30T05:08:52;18.80;58.20
41533;DHT22;27262;-35.248;149.138;2023-07-30T05:11:24;18.80;58.20
41533;DHT22;27262;-35.248;149.138;2023-07-30T05:13:54;18.80;58.20
41533;DHT22;27262;-35.248;149.138;2023-07-30T05:16:24;18.80;58.10
41533;DHT22;27262;-35.248;149.138;2023-07-30T05:18:55;18.90;58.20
41533;DHT22;27262;-35.248;149.138;2023-07-30T05:21:25;18.90;58.10
41533;DHT22;27262;-35.248;149.138;2023-07-30T05:23:55;19.30;57.50
41533;DHT22;27262;-35.248;149.138;2023-07-30T05:26:25;19.20;57.60
41533;DHT22;27262;-35.248;149.138;2023-07-30T05:28:56;19.10;57.80
41533;DHT22;27262;-35.248;149.138;2023-07-30T05:31:26;19.00;57.90
41533;DHT22;27262;-35.248;149.138;2023-07-30T05:33:57;19.00;58.00
41533;DHT22;27262;-35.248;149.138;2023-07-30T05:36:27;19.00;58.20
41533;DHT22;27262;-35.248;149.138;2023-07-30T05:38:57;19.00;58.20
41533;DHT22;27262;-35.248;149.138;2023-07-30T05:41:28;18.90;58.80
41533;DHT22;27262;-35.248;149.138;2023-07-30T05:43:58;18.90;58.10
41533;DHT22;27262;-35.248;149.138;2023-07-30T05:46:28;18.90;58.20
41533;DHT22;27262;-35.248;149.138;2023-07-30T05:48:59;18.90;58.20
41533;DHT22;27262;-35.248;149.138;2023-07-30T05:51:29;18.90;58.30
41533;DHT22;27262;-35.248;149.138;2023-07-30T05:54:00;18.90;58.40
41533;DHT22;27262;-35.248;149.138;2023-07-30T05:56:30;18.90;58.40
41533;DHT22;27262;-35.248;149.138;2023-07-30T05:59:01;18.90;58.50
41533;DHT22;27262;-35.248;149.138;2023-07-30T06:01:31;18.80;58.50
41533;DHT22;27262;-35.248;149.138;2023-07-30T06:04:01;18.80;58.50
41533;DHT22;27262;-35.248;149.138;2023-07-30T06:06:31;18.80;58.60
41533;DHT22;27262;-35.248;149.138;2023-07-30T06:09:02;18.80;58.60
41533;DHT22;27262;-35.248;149.138;2023-07-30T06:11:33;18.80;58.70
41533;DHT22;27262;-35.248;149.138;2023-07-30T06:14:04;18.80;58.70
41533;DHT22;27262;-35.248;149.138;2023-07-30T06:16:34;18.80;58.70
41533;DHT22;27262;-35.248;149.138;2023-07-30T06:19:05;18.70;58.80
41533;DHT22;27262;-35.248;149.138;2023-07-30T06:21:35;18.70;58.80
41533;DHT22;27262;-35.248;149.138;2023-07-30T06:24:06;18.70;58.90
41533;DHT22;27262;-35.248;149.138;2023-07-30T06:26:36;18.70;58.90
41533;DHT22;27262;-35.248;149.138;2023-07-30T06:29:06;18.70;59.00
41533;DHT22;27262;-35.248;149.138;2023-07-30T06:31:37;18.70;59.00
41533;DHT22;27262;-35.248;149.138;2023-07-30T06:34:07;18.70;59.00
41533;DHT22;27262;-35.248;149.138;2023-07-30T06:36:38;18.60;59.00
41533;DHT22;27262;-35.248;149.138;2023-07-30T06:39:08;18.60;59.10
41533;DHT22;27262;-35.248;149.138;2023-07-30T06:41:38;18.60;59.10
41533;DHT22;27262;-35.248;149.138;2023-07-30T06:44:09;18.60;59.20
41533;DHT22;27262;-35.248;149.138;2023-07-30T06:46:40;18.60;59.20
41533;DHT22;27262;-35.248;149.138;2023-07-30T06:49:10;18.60;59.20
41533;DHT22;27262;-35.248;149.138;2023-07-30T06:51:40;18.60;59.30
41533;DHT22;27262;-35.248;149.138;2023-07-30T06:54:11;18.60;59.30
41533;DHT22;27262;-35.248;149.138;2023-07-30T06:56:41;18.60;59.30
41533;DHT22;27262;-35.248;149.138;2023-07-30T06:59:11;18.50;59.30
41533;DHT22;27262;-35.248;149.138;2023-07-30T07:01:42;18.50;59.30
41533;DHT22;27262;-35.248;149.138;2023-07-30T07:04:12;18.60;59.40
41533;DHT22;27262;-35.248;149.138;2023-07-30T07:06:43;18.50;59.40
41533;DHT22;27262;-35.248;149.138;2023-07-30T07:09:13;18.50;59.50
41533;DHT22;27262;-35.248;149.138;2023-07-30T07:11:43;18.50;59.50
41533;DHT22;27262;-35.248;149.138;2023-07-30T07:14:14;18.50;59.50
41533;DHT22;27262;-35.248;149.138;2023-07-30T07:16:44;18.50;59.50
41533;DHT22;27262;-35.248;149.138;2023-07-30T07:19:14;18.40;59.50
41533;DHT22;27262;-35.248;149.138;2023-07-30T07:21:45;18.50;59.60
41533;DHT22;27262;-35.248;149.138;2023-07-30T07:24:15;18.40;59.60
41533;DHT22;27262;-35.248;149.138;2023-07-30T07:26:45;18.40;59.60
41533;DHT22;27262;-35.248;149.138;2023-07-30T07:29:16;18.40;59.60
41533;DHT22;27262;-35.248;149.138;2023-07-30T07:31:46;18.40;59.70
41533;DHT22;27262;-35.248;149.138;2023-07-30T07:34:16;18.40;59.60
41533;DHT22;27262;-35.248;149.138;2023-07-30T07:36:47;18.40;59.70
41533;DHT22;27262;-35.248;149.138;2023-07-30T07:39:17;18.40;59.70
41533;DHT22;27262;-35.248;149.138;2023-07-30T07:41:47;18.40;59.70
41533;DHT22;27262;-35.248;149.138;2023-07-30T07:44:18;18.40;59.80
41533;DHT22;27262;-35.248;149.138;2023-07-30T07:46:48;18.40;59.80
41533;DHT22;27262;-35.248;149.138;2023-07-30T07:49:18;18.30;59.80
41533;DHT22;27262;-35.248;149.138;2023-07-30T07:51:48;18.30;59.80
41533;DHT22;27262;-35.248;149.138;2023-07-30T07:54:18;18.30;59.90
41533;DHT22;27262;-35.248;149.138;2023-07-30T07:56:49;18.30;59.90
41533;DHT22;27262;-35.248;149.138;2023-07-30T07:59:19;18.30;59.90
41533;DHT22;27262;-35.248;149.138;2023-07-30T08:01:49;18.20;59.90
41533;DHT22;27262;-35.248;149.138;2023-07-30T08:04:20;18.30;60.00
41533;DHT22;27262;-35.248;149.138;2023-07-30T08:06:53;18.20;60.00
41533;DHT22;27262;-35.248;149.138;2023-07-30T08:09:23;18.20;60.00
41533;DHT22;27262;-35.248;149.138;2023-07-30T08:11:54;18.20;60.00
41533;DHT22;27262;-35.248;149.138;2023-07-30T08:14:24;18.20;60.00
41533;DHT22;27262;-35.248;149.138;2023-07-30T08:16:54;18.20;60.00
41533;DHT22;27262;-35.248;149.138;2023-07-30T08:19:25;18.20;60.00
41533;DHT22;27262;-35.248;149.138;2023-07-30T08:21:57;18.20;60.00
41533;DHT22;27262;-35.248;149.138;2023-07-30T08:24:28;18.20;60.00
41533;DHT22;27262;-35.248;149.138;2023-07-30T08:26:59;18.20;60.10
41533;DHT22;27262;-35.248;149.138;2023-07-30T08:29:30;18.30;60.00
41533;DHT22;27262;-35.248;149.138;2023-07-30T08:32:00;18.30;60.10
41533;DHT22;27262;-35.248;149.138;2023-07-30T08:34:30;18.30;60.10
41533;DHT22;27262;-35.248;149.138;2023-07-30T08:37:01;18.30;60.10
41533;DHT22;27262;-35.248;149.138;2023-07-30T08:39:31;18.20;60.00
41533;DHT22;27262;-35.248;149.138;2023-07-30T08:42:02;18.20;60.00
41533;DHT22;27262;-35.248;149.138;2023-07-30T08:44:32;18.30;60.10
41533;DHT22;27262;-35.248;149.138;2023-07-30T08:47:03;18.30;60.10
41533;DHT22;27262;-35.248;149.138;2023-07-30T08:49:33;18.30;60.00
41533;DHT22;27262;-35.248;149.138;2023-07-30T08:52:05;18.20;60.10
41533;DHT22;27262;-35.248;149.138;2023-07-30T08:54:39;18.30;60.10
41533;DHT22;27262;-35.248;149.138;2023-07-30T08:57:11;18.30;60.20
41533;DHT22;27262;-35.248;149.138;2023-07-30T08:59:54;18.30;60.20
41533;DHT22;27262;-35.248;149.138;2023-07-30T09:02:52;18.30;60.50
41533;DHT22;27262;-35.248;149.138;2023-07-30T09:05:23;18.30;60.30
41533;DHT22;27262;-35.248;149.138;2023-07-30T09:07:53;18.30;60.60
41533;DHT22;27262;-35.248;149.138;2023-07-30T09:10:25;18.30;60.50
41533;DHT22;27262;-35.248;149.138;2023-07-30T09:12:57;18.30;60.60
41533;DHT22;27262;-35.248;149.138;2023-07-30T09:15:38;18.30;60.50
41533;DHT22;27262;-35.248;149.138;2023-07-30T09:18:09;18.30;60.50
41533;DHT22;27262;-35.248;149.138;2023-07-30T09:20:40;18.30;60.60
41533;DHT22;27262;-35.248;149.138;2023-07-30T09:23:11;18.30;60.60
41533;DHT22;27262;-35.248;149.138;2023-07-30T09:25:42;18.30;60.60
41533;DHT22;27262;-35.248;149.138;2023-07-30T09:28:12;18.30;60.60
41533;DHT22;27262;-35.248;149.138;2023-07-30T09:30:43;18.30;60.60
41533;DHT22;27262;-35.248;149.138;2023-07-30T09:33:19;18.30;60.50
41533;DHT22;27262;-35.248;149.138;2023-07-30T09:35:51;18.30;60.60
41533;DHT22;27262;-35.248;149.138;2023-07-30T09:38:28;18.30;60.60
41533;DHT22;27262;-35.248;149.138;2023-07-30T09:41:03;18.30;60.60
41533;DHT22;27262;-35.248;149.138;2023-07-30T09:43:34;18.30;60.50
41533;DHT22;27262;-35.248;149.138;2023-07-30T09:46:06;18.30;60.60
41533;DHT22;27262;-35.248;149.138;2023-07-30T09:48:37;18.30;60.50
41533;DHT22;27262;-35.248;149.138;2023-07-30T09:51:08;18.30;60.60
41533;DHT22;27262;-35.248;149.138;2023-07-30T09:53:38;18.30;60.50
41533;DHT22;27262;-35.248;149.138;2023-07-30T09:56:09;18.30;60.60
41533;DHT22;27262;-35.248;149.138;2023-07-30T09:58:39;18.30;60.50
41533;DHT22;27262;-35.248;149.138;2023-07-30T10:01:12;18.30;60.50
41533;DHT22;27262;-35.248;149.138;2023-07-30T10:03:42;18.30;60.50
41533;DHT22;27262;-35.248;149.138;2023-07-30T10:06:13;18.30;60.50
41533;DHT22;27262;-35.248;149.138;2023-07-30T10:08:45;18.30;60.50
41533;DHT22;27262;-35.248;149.138;2023-07-30T10:11:16;18.30;60.50
41533;DHT22;27262;-35.248;149.138;2023-07-30T10:13:47;18.30;60.50
41533;DHT22;27262;-35.248;149.138;2023-07-30T10:16:17;18.30;60.50
41533;DHT22;27262;-35.248;149.138;2023-07-30T10:18:48;18.30;60.50
41533;DHT22;27262;-35.248;149.138;2023-07-30T10:21:28;18.30;60.40
41533;DHT22;27262;-35.248;149.138;2023-07-30T10:24:03;18.30;60.50
41533;DHT22;27262;-35.248;149.138;2023-07-30T10:26:35;18.30;60.50
41533;DHT22;27262;-35.248;149.138;2023-07-30T10:29:17;18.30;60.50
41533;DHT22;27262;-35.248;149.138;2023-07-30T10:31:54;18.30;60.40
41533;DHT22;27262;-35.248;149.138;2023-07-30T10:34:44;18.30;60.50
41533;DHT22;27262;-35.248;149.138;2023-07-30T10:37:20;18.30;60.30
41533;DHT22;27262;-35.248;149.138;2023-07-30T10:39:51;18.30;60.50
41533;DHT22;27262;-35.248;149.138;2023-07-30T10:42:21;18.30;60.50
41533;DHT22;27262;-35.248;149.138;2023-07-30T10:44:51;18.30;60.50
41533;DHT22;27262;-35.248;149.138;2023-07-30T10:47:22;18.30;60.40
41533;DHT22;27262;-35.248;149.138;2023-07-30T10:50:05;18.30;60.50
41533;DHT22;27262;-35.248;149.138;2023-07-30T10:52:36;18.30;60.50
41533;DHT22;27262;-35.248;149.138;2023-07-30T10:55:07;18.30;60.50
41533;DHT22;27262;-35.248;149.138;2023-07-30T10:57:38;18.40;60.50
41533;DHT22;27262;-35.248;149.138;2023-07-30T11:00:10;18.40;60.50
41533;DHT22;27262;-35.248;149.138;2023-07-30T11:02:41;18.30;60.50
41533;DHT22;27262;-35.248;149.138;2023-07-30T11:05:13;18.30;60.50
41533;DHT22;27262;-35.248;149.138;2023-07-30T11:07:50;18.30;60.50
41533;DHT22;27262;-35.248;149.138;2023-07-30T11:10:21;18.30;60.50
41533;DHT22;27262;-35.248;149.138;2023-07-30T11:12:51;18.30;60.60
41533;DHT22;27262;-35.248;149.138;2023-07-30T11:15:22;18.30;60.70
41533;DHT22;27262;-35.248;149.138;2023-07-30T11:17:52;18.30;60.80
41533;DHT22;27262;-35.248;149.138;2023-07-30T11:20:27;18.20;60.90
41533;DHT22;27262;-35.248;149.138;2023-07-30T11:22:57;18.30;61.00
41533;DHT22;27262;-35.248;149.138;2023-07-30T11:25:28;18.20;61.00
41533;DHT22;27262;-35.248;149.138;2023-07-30T11:27:58;18.20;61.00
41533;DHT22;27262;-35.248;149.138;2023-07-30T11:30:29;18.20;61.10
41533;DHT22;27262;-35.248;149.138;2023-07-30T11:33:00;18.20;61.10
41533;DHT22;27262;-35.248;149.138;2023-07-30T11:35:31;18.20;61.10
41533;DHT22;27262;-35.248;149.138;2023-07-30T11:38:01;18.20;61.10
41533;DHT22;27262;-35.248;149.138;2023-07-30T11:40:32;18.20;61.10
41533;DHT22;27262;-35.248;149.138;2023-07-30T11:43:03;18.20;61.10
41533;DHT22;27262;-35.248;149.138;2023-07-30T11:45:34;18.20;61.10
41533;DHT22;27262;-35.248;149.138;2023-07-30T11:48:09;18.20;61.00
41533;DHT22;27262;-35.248;149.138;2023-07-30T11:50:51;18.20;61.00
41533;DHT22;27262;-35.248;149.138;2023-07-30T11:53:21;18.20;60.90
41533;DHT22;27262;-35.248;149.138;2023-07-30T11:55:51;18.10;61.00
41533;DHT22;27262;-35.248;149.138;2023-07-30T11:58:21;18.10;61.00
41533;DHT22;27262;-35.248;149.138;2023-07-30T12:00:52;18.10;61.00
41533;DHT22;27262;-35.248;149.138;2023-07-30T12:03:22;18.10;61.00
41533;DHT22;27262;-35.248;149.138;2023-07-30T12:05:55;18.00;61.00
41533;DHT22;27262;-35.248;149.138;2023-07-30T12:08:27;18.00;61.00
41533;DHT22;27262;-35.248;149.138;2023-07-30T12:11:03;18.00;61.00
41533;DHT22;27262;-35.248;149.138;2023-07-30T12:13:41;18.00;61.00
41533;DHT22;27262;-35.248;149.138;2023-07-30T12:16:14;18.00;61.00
41533;DHT22;27262;-35.248;149.138;2023-07-30T12:18:48;18.00;61.00
41533;DHT22;27262;-35.248;149.138;2023-07-30T12:21:18;18.00;61.10
41533;DHT22;27262;-35.248;149.138;2023-07-30T12:23:49;18.00;61.10
41533;DHT22;27262;-35.248;149.138;2023-07-30T12:26:19;18.00;61.10
41533;DHT22;27262;-35.248;149.138;2023-07-30T12:28:50;18.00;61.10
41533;DHT22;27262;-35.248;149.138;2023-07-30T12:31:20;17.90;61.00
41533;DHT22;27262;-35.248;149.138;2023-07-30T12:33:51;17.90;61.00
41533;DHT22;27262;-35.248;149.138;2023-07-30T12:36:21;17.90;61.00
41533;DHT22;27262;-35.248;149.138;2023-07-30T12:38:52;17.90;61.10
41533;DHT22;27262;-35.248;149.138;2023-07-30T12:41:23;17.90;61.10
41533;DHT22;27262;-35.248;149.138;2023-07-30T12:43:57;17.90;61.10
41533;DHT22;27262;-35.248;149.138;2023-07-30T12:46:27;17.90;61.10
41533;DHT22;27262;-35.248;149.138;2023-07-30T12:49:00;17.90;61.10
41533;DHT22;27262;-35.248;149.138;2023-07-30T12:51:33;17.80;61.10
41533;DHT22;27262;-35.248;149.138;2023-07-30T12:54:04;17.80;61.10
41533;DHT22;27262;-35.248;149.138;2023-07-30T12:56:35;17.80;61.10
41533;DHT22;27262;-35.248;149.138;2023-07-30T12:59:05;17.80;61.10
41533;DHT22;27262;-35.248;149.138;2023-07-30T13:01:35;17.80;61.20
41533;DHT22;27262;-35.248;149.138;2023-07-30T13:04:06;17.80;61.10
41533;DHT22;27262;-35.248;149.138;2023-07-30T13:06:36;17.80;61.20
41533;DHT22;27262;-35.248;149.138;2023-07-30T13:09:07;17.80;61.30
41533;DHT22;27262;-35.248;149.138;2023-07-30T13:11:37;17.70;61.10
41533;DHT22;27262;-35.248;149.138;2023-07-30T13:14:08;17.70;61.20
41533;DHT22;27262;-35.248;149.138;2023-07-30T13:16:38;17.70;61.20
41533;DHT22;27262;-35.248;149.138;2023-07-30T13:19:09;17.70;61.30
41533;DHT22;27262;-35.248;149.138;2023-07-30T13:21:39;17.70;61.30
41533;DHT22;27262;-35.248;149.138;2023-07-30T13:24:10;17.70;61.30
41533;DHT22;27262;-35.248;149.138;2023-07-30T13:26:40;17.70;61.30
41533;DHT22;27262;-35.248;149.138;2023-07-30T13:29:10;17.60;61.20
41533;DHT22;27262;-35.248;149.138;2023-07-30T13:31:40;17.60;61.20
41533;DHT22;27262;-35.248;149.138;2023-07-30T13:34:11;17.60;61.30
41533;DHT22;27262;-35.248;149.138;2023-07-30T13:36:41;17.60;61.30
41533;DHT22;27262;-35.248;149.138;2023-07-30T13:39:11;17.60;61.30
41533;DHT22;27262;-35.248;149.138;2023-07-30T13:41:42;17.60;61.30
41533;DHT22;27262;-35.248;149.138;2023-07-30T13:44:13;17.60;61.30
41533;DHT22;27262;-35.248;149.138;2023-07-30T13:46:43;17.60;61.40
41533;DHT22;27262;-35.248;149.138;2023-07-30T13:49:13;17.50;61.30
41533;DHT22;27262;-35.248;149.138;2023-07-30T13:51:44;17.50;61.30
41533;DHT22;27262;-35.248;149.138;2023-07-30T13:54:14;17.50;61.30
41533;DHT22;27262;-35.248;149.138;2023-07-30T13:56:44;17.50;61.30
41533;DHT22;27262;-35.248;149.138;2023-07-30T13:59:15;17.50;61.40
41533;DHT22;27262;-35.248;149.138;2023-07-30T14:01:45;17.50;61.40
41533;DHT22;27262;-35.248;149.138;2023-07-30T14:04:16;17.50;61.40
41533;DHT22;27262;-35.248;149.138;2023-07-30T14:06:46;17.50;61.40
41533;DHT22;27262;-35.248;149.138;2023-07-30T14:09:16;17.50;61.40
41533;DHT22;27262;-35.248;149.138;2023-07-30T14:11:47;17.40;61.30
41533;DHT22;27262;-35.248;149.138;2023-07-30T14:14:17;17.40;61.40
41533;DHT22;27262;-35.248;149.138;2023-07-30T14:16:50;17.40;61.40
41533;DHT22;27262;-35.248;149.138;2023-07-30T14:19:23;17.40;61.40
41533;DHT22;27262;-35.248;149.138;2023-07-30T14:21:53;17.40;61.40
41533;DHT22;27262;-35.248;149.138;2023-07-30T14:24:24;17.40;61.40
41533;DHT22;27262;-35.248;149.138;2023-07-30T14:26:54;17.40;61.40
41533;DHT22;27262;-35.248;149.138;2023-07-30T14:29:24;17.40;61.40
41533;DHT22;27262;-35.248;149.138;2023-07-30T14:31:54;17.40;61.50
41533;DHT22;27262;-35.248;149.138;2023-07-30T14:34:25;17.30;61.40
41533;DHT22;27262;-35.248;149.138;2023-07-30T14:36:55;17.30;61.40
41533;DHT22;27262;-35.248;149.138;2023-07-30T14:39:26;17.30;61.50
41533;DHT22;27262;-35.248;149.138;2023-07-30T14:41:56;17.30;61.50
41533;DHT22;27262;-35.248;149.138;2023-07-30T14:44:27;17.20;61.50
41533;DHT22;27262;-35.248;149.138;2023-07-30T14:46:57;17.30;61.60
41533;DHT22;27262;-35.248;149.138;2023-07-30T14:49:28;17.30;61.50
41533;DHT22;27262;-35.248;149.138;2023-07-30T14:51:58;17.20;61.50
41533;DHT22;27262;-35.248;149.138;2023-07-30T14:54:29;17.30;61.60
41533;DHT22;27262;-35.248;149.138;2023-07-30T14:56:59;17.20;61.50
41533;DHT22;27262;-35.248;149.138;2023-07-30T14:59:30;17.20;61.50
41533;DHT22;27262;-35.248;149.138;2023-07-30T15:02:00;17.20;61.60
41533;DHT22;27262;-35.248;149.138;2023-07-30T15:04:31;17.20;61.60
41533;DHT22;27262;-35.248;149.138;2023-07-30T15:07:01;17.20;61.70
41533;DHT22;27262;-35.248;149.138;2023-07-30T15:09:33;17.10;61.60
41533;DHT22;27262;-35.248;149.138;2023-07-30T15:12:05;17.20;61.70